Time;durP1;ratioP1;P1;durP2;ratioP2;P2;SDS_P1;SDS_P2;PMS_P1;PMS_P2;Temp;Humidity;BMP_temperature;BMP_pressure;BME280_temperature;BME280_humidity;BME280_pressure;Samples;Min_cycle;Max_cycle;Signal;HPM_P1;HPM_P2
2022/03/26 00:00:07;;;;;;;29.40;19.13;;;;;;;4.15;82.91;103087.03;1052898;28;20336;-74
2022/03/26 00:00:39;;;;;;;35.22;17.88;;;;;;;4.03;82.75;103092.28;1054010;28;20369;-74
2022/03/26 00:01:17;;;;;;;29.08;18.52;;;;;;;4.03;82.89;103092.28;1056507;28;20856;-73
2022/03/26 00:01:50;;;;;;;30.30;19.05;;;;;;;4.11;82.80;103090.84;1056065;28;20289;-73
2022/03/26 00:02:22;;;;;;;30.00;17.38;;;;;;;4.19;82.57;103085.84;1056229;28;20313;-74
2022/03/26 00:02:54;;;;;;;35.92;19.73;;;;;;;4.11;82.59;103088.19;1056689;28;20291;-73
2022/03/26 00:03:26;;;;;;;31.98;20.42;;;;;;;4.01;82.88;103093.34;1056015;28;20301;-74
2022/03/26 00:03:58;;;;;;;34.85;19.58;;;;;;;4.16;82.77;103086.91;1055989;28;20309;-73
2022/03/26 00:04:29;;;;;;;33.95;18.67;;;;;;;4.02;82.87;103084.50;1056596;28;20363;-74
2022/03/26 00:05:01;;;;;;;30.33;18.98;;;;;;;4.07;83.32;103090.25;1052570;28;20301;-73
2022/03/26 00:05:33;;;;;;;27.15;17.98;;;;;;;4.01;82.83;103088.91;1051559;28;20301;-73
2022/03/26 00:06:06;;;;;;;28.08;19.80;;;;;;;4.02;82.85;103085.31;1048052;28;20298;-74
2022/03/26 00:06:38;;;;;;;26.73;19.48;;;;;;;4.10;83.33;103087.38;1046224;28;20307;-74
2022/03/26 00:07:09;;;;;;;32.35;20.92;;;;;;;4.24;83.48;103092.44;1048320;28;20812;-73
2022/03/26 00:07:42;;;;;;;34.85;20.17;;;;;;;4.04;83.55;103082.56;1048814;28;20279;-74
2022/03/26 00:08:13;;;;;;;30.05;20.17;;;;;;;4.01;83.18;103093.34;1049583;28;20294;-74
2022/03/26 00:08:48;;;;;;;31.65;20.08;;;;;;;3.84;83.26;103086.75;1051480;28;20359;-74
2022/03/26 00:09:19;;;;;;;32.63;23.13;;;;;;;3.96;83.31;103091.06;1052732;28;20310;-74
2022/03/26 00:09:51;;;;;;;37.38;23.75;;;;;;;4.13;83.68;103091.59;1056444;28;20651;-73
2022/03/26 00:10:22;;;;;;;38.65;24.35;;;;;;;4.32;83.90;103097.09;1056307;28;20305;-73
2022/03/26 00:10:54;;;;;;;40.72;23.98;;;;;;;4.31;83.93;103090.97;1052150;28;20327;-74
2022/03/26 00:11:26;;;;;;;42.42;24.52;;;;;;;4.25;84.08;103090.63;1052070;28;20309;-74
2022/03/26 00:11:57;;;;;;;36.20;24.02;;;;;;;4.33;84.06;103090.84;1051866;28;20298;-73
2022/03/26 00:12:29;;;;;;;37.75;24.80;;;;;;;4.36;84.19;103090.63;1052558;28;20785;-73
2022/03/26 00:13:01;;;;;;;38.47;23.52;;;;;;;4.44;83.90;103098.78;1056508;28;20830;-73
2022/03/26 00:13:32;;;;;;;39.35;22.95;;;;;;;4.43;83.97;103093.63;1052195;28;20297;-74
2022/03/26 00:14:04;;;;;;;33.17;23.95;;;;;;;4.28;83.46;103090.38;1052430;28;20302;-73
2022/03/26 00:14:35;;;;;;;33.15;22.10;;;;;;;4.23;83.77;103089.91;1056292;28;20814;-74
2022/03/26 00:15:08;;;;;;;30.40;23.60;;;;;;;4.17;83.32;103090.41;1056468;28;20678;-74
2022/03/26 00:15:39;;;;;;;32.55;22.63;;;;;;;3.98;83.51;103089.16;1056551;28;20297;-73
2022/03/26 00:16:11;;;;;;;32.58;23.10;;;;;;;3.93;83.44;103091.31;1056574;28;20293;-74
2022/03/26 00:16:43;;;;;;;36.72;22.73;;;;;;;3.88;83.24;103087.34;1056739;28;20297;-74
2022/03/26 00:17:15;;;;;;;36.92;23.75;;;;;;;3.87;83.65;103086.53;1056116;28;20294;-74
2022/03/26 00:17:46;;;;;;;33.45;21.80;;;;;;;3.81;83.63;103080.84;1056443;28;20289;-74
2022/03/26 00:18:18;;;;;;;32.78;22.27;;;;;;;3.86;84.01;103090.13;1056809;28;20300;-73
2022/03/26 00:18:49;;;;;;;29.50;21.60;;;;;;;3.86;84.50;103089.28;1056503;28;20774;-74
2022/03/26 00:19:21;;;;;;;39.13;21.52;;;;;;;3.88;84.40;103087.34;1056415;28;20628;-74
2022/03/26 00:19:53;;;;;;;33.95;24.15;;;;;;;3.83;84.31;103085.03;1056699;28;20308;-74
2022/03/26 00:20:25;;;;;;;35.35;22.50;;;;;;;3.74;84.02;103083.13;1056401;28;20316;-74
2022/03/26 00:20:56;;;;;;;34.60;22.67;;;;;;;3.66;84.23;103093.41;1056492;28;20662;-74
2022/03/26 00:21:28;;;;;;;30.33;23.38;;;;;;;3.62;84.33;103091.97;1056136;28;20297;-73
2022/03/26 00:22:00;;;;;;;37.33;22.90;;;;;;;3.73;84.34;103094.63;1051935;28;20298;-73
2022/03/26 00:22:32;;;;;;;41.13;23.33;;;;;;;3.69;84.63;103082.63;1047569;28;20305;-74
2022/03/26 00:23:04;;;;;;;37.03;24.20;;;;;;;3.85;84.61;103088.44;1048666;28;20287;-73
2022/03/26 00:23:35;;;;;;;30.70;23.20;;;;;;;3.77;84.62;103085.53;1050480;28;20287;-74
2022/03/26 00:24:07;;;;;;;32.25;23.08;;;;;;;3.87;83.92;103091.78;1052187;28;20297;-74
2022/03/26 00:24:39;;;;;;;31.30;22.35;;;;;;;3.89;83.91;103089.88;1056324;28;20297;-74
2022/03/26 00:25:13;;;;;;;35.42;23.27;;;;;;;3.73;83.98;103090.19;1056386;28;20636;-74
2022/03/26 00:25:45;;;;;;;35.92;22.70;;;;;;;3.91;84.59;103093.22;1056158;28;20289;-73
2022/03/26 00:26:16;;;;;;;33.55;23.83;;;;;;;3.93;83.84;103086.03;1056336;28;20301;-73
2022/03/26 00:26:48;;;;;;;33.33;24.42;;;;;;;3.95;83.87;103089.41;1056575;28;20300;-74
2022/03/26 00:27:20;;;;;;;33.95;22.73;;;;;;;4.04;83.63;103087.84;1056129;28;20308;-74
2022/03/26 00:27:52;;;;;;;38.42;24.42;;;;;;;4.00;84.01;103092.53;1056492;28;20308;-73
2022/03/26 00:28:24;;;;;;;32.30;23.50;;;;;;;4.08;83.22;103091.91;1056722;28;20339;-74
2022/03/26 00:28:57;;;;;;;40.53;23.08;;;;;;;4.11;83.40;103093.47;1056505;28;20297;-74
2022/03/26 00:29:28;;;;;;;34.60;24.02;;;;;;;4.15;83.16;103094.94;1051710;28;20297;-74
2022/03/26 00:30:02;;;;;;;38.78;24.27;;;;;;;4.20;83.28;103098.06;1051987;28;20309;-73
2022/03/26 00:30:34;;;;;;;32.38;23.48;;;;;;;4.23;83.10;103092.53;1053197;28;20297;-74
2022/03/26 00:31:05;;;;;;;38.25;23.10;;;;;;;4.32;82.52;103102.38;1056180;28;20678;-73
2022/03/26 00:31:38;;;;;;;39.42;24.38;;;;;;;4.22;82.81;103102.25;1056366;28;20347;-74
2022/03/26 00:32:10;;;;;;;39.78;22.45;;;;;;;4.27;82.83;103096.63;1056732;28;20448;-74
2022/03/26 00:32:41;;;;;;;43.45;24.65;;;;;;;4.13;83.26;103091.59;1055920;28;20296;-73
2022/03/26 00:33:13;;;;;;;36.85;23.42;;;;;;;4.04;82.85;103096.59;1056420;28;20305;-74
2022/03/26 00:33:45;;;;;;;40.67;23.60;;;;;;;3.92;83.65;103094.91;1056212;28;20305;-74
2022/03/26 00:34:16;;;;;;;33.65;22.27;;;;;;;3.70;83.20;103090.41;1056385;28;20277;-73
2022/03/26 00:34:48;;;;;;;30.55;22.90;;;;;;;3.81;83.71;103097.50;1056170;28;20293;-74
2022/03/26 00:35:20;;;;;;;32.28;23.98;;;;;;;3.85;84.20;103093.72;1056251;28;20308;-74
2022/03/26 00:35:52;;;;;;;41.15;23.85;;;;;;;3.94;83.82;103095.63;1056366;28;20293;-74
2022/03/26 00:36:23;;;;;;;43.20;22.45;;;;;;;3.84;84.19;103096.47;1056133;28;20297;-73
2022/03/26 00:36:55;;;;;;;28.77;22.88;;;;;;;3.76;83.99;103099.66;1056395;28;20293;-73
2022/03/26 00:37:26;;;;;;;32.45;22.35;;;;;;;3.60;84.13;103107.06;1049499;28;20784;-74
2022/03/26 00:37:58;;;;;;;36.58;22.67;;;;;;;3.49;84.12;103104.38;1051981;28;20313;-74
2022/03/26 00:38:30;;;;;;;36.67;23.45;;;;;;;3.33;84.55;103108.16;1051837;28;20305;-74
2022/03/26 00:39:04;;;;;;;37.50;23.08;;;;;;;3.38;84.76;103111.28;1052743;28;20278;-73
2022/03/26 00:39:36;;;;;;;35.30;21.70;;;;;;;3.31;85.28;103104.78;1056202;28;20803;-74
2022/03/26 00:40:08;;;;;;;31.73;22.02;;;;;;;3.37;85.19;103109.59;1056051;28;20308;-74
2022/03/26 00:40:41;;;;;;;37.55;23.25;;;;;;;3.49;85.56;103107.00;1056320;28;20293;-74
2022/03/26 00:41:12;;;;;;;34.63;23.20;;;;;;;3.44;85.74;103111.78;1053984;28;20294;-74
2022/03/26 00:41:44;;;;;;;32.53;23.42;;;;;;;3.39;85.84;103106.84;1055757;28;20336;-74
2022/03/26 00:42:15;;;;;;;34.63;22.83;;;;;;;3.24;85.58;103103.53;1055718;28;20297;-74
2022/03/26 00:42:47;;;;;;;31.17;22.13;;;;;;;3.12;85.51;103104.44;1050326;28;20298;-73
2022/03/26 00:43:18;;;;;;;32.15;21.27;;;;;;;3.32;85.28;103109.09;1055974;28;20299;-74
2022/03/26 00:43:50;;;;;;;35.75;22.60;;;;;;;3.25;84.95;103102.59;1056688;28;20297;-74
2022/03/26 00:44:22;;;;;;;46.10;23.63;;;;;;;3.31;85.40;103104.78;1049570;28;20286;-74
2022/03/26 00:44:53;;;;;;;38.30;22.92;;;;;;;3.36;85.85;103102.66;1051938;28;20298;-73
2022/03/26 00:45:26;;;;;;;36.13;23.67;;;;;;;3.57;85.98;103104.66;1047897;28;20388;-74
2022/03/26 00:45:58;;;;;;;31.95;22.95;;;;;;;3.62;86.08;103107.78;1044997;28;20291;-73
2022/03/26 00:46:29;;;;;;;32.88;24.80;;;;;;;3.65;86.28;103107.53;1047813;28;20801;-73
2022/03/26 00:47:02;;;;;;;35.25;24.05;;;;;;;3.79;86.09;103102.06;1048308;28;20514;-73
2022/03/26 00:47:33;;;;;;;38.22;22.65;;;;;;;3.83;86.25;103094.75;1052894;28;20325;-73
2022/03/26 00:48:05;;;;;;;36.45;24.48;;;;;;;3.63;85.60;103104.19;1056167;28;20312;-74
2022/03/26 00:48:36;;;;;;;40.20;24.45;;;;;;;3.44;85.32;103098.59;1056223;28;20340;-73
2022/03/26 00:49:08;;;;;;;36.63;23.20;;;;;;;3.51;85.53;103097.19;1056229;28;20667;-73
2022/03/26 00:49:40;;;;;;;33.88;23.60;;;;;;;3.45;85.43;103106.38;1051874;28;20787;-73
2022/03/26 00:50:12;;;;;;;34.25;22.38;;;;;;;3.48;85.66;103100.03;1051795;28;20290;-74
2022/03/26 00:50:43;;;;;;;28.25;23.02;;;;;;;3.57;85.76;103096.75;1052618;28;20293;-74
2022/03/26 00:51:16;;;;;;;34.72;23.75;;;;;;;3.60;85.16;103099.16;1048022;28;20305;-73
2022/03/26 00:51:47;;;;;;;34.92;23.45;;;;;;;3.36;86.01;103105.28;1051861;28;20352;-74
2022/03/26 00:52:19;;;;;;;32.83;22.77;;;;;;;3.25;86.49;103101.75;1052203;28;20281;-74
2022/03/26 00:52:50;;;;;;;37.13;23.02;;;;;;;3.27;86.50;103103.31;1052320;28;20302;-74
2022/03/26 00:53:22;;;;;;;37.08;23.02;;;;;;;3.40;86.47;103101.47;1056129;28;20317;-74
2022/03/26 00:53:54;;;;;;;41.53;24.42;;;;;;;3.41;86.46;103097.88;1056024;28;20861;-74
2022/03/26 00:54:25;;;;;;;40.63;24.60;;;;;;;3.48;86.60;103100.03;1056352;28;20297;-74
2022/03/26 00:54:57;;;;;;;36.13;23.42;;;;;;;3.51;86.53;103100.66;1056347;28;20305;-74
2022/03/26 00:55:29;;;;;;;37.08;23.90;;;;;;;3.45;86.64;103100.28;1056763;28;20320;-73
2022/03/26 00:56:00;;;;;;;27.95;21.80;;;;;;;3.48;86.59;103094.78;1056048;28;20305;-73
2022/03/26 00:56:32;;;;;;;37.28;23.65;;;;;;;3.52;86.38;103096.22;1056019;28;20301;-73
2022/03/26 00:57:04;;;;;;;36.45;23.05;;;;;;;3.57;86.02;103099.38;1056266;28;20285;-74
2022/03/26 00:57:36;;;;;;;43.85;24.05;;;;;;;3.56;85.50;103102.94;1055657;28;20324;-73
2022/03/26 00:58:08;;;;;;;36.58;23.60;;;;;;;3.55;85.78;103103.91;1055833;28;20329;-74
2022/03/26 00:58:40;;;;;;;30.65;21.80;;;;;;;3.55;85.22;103103.91;1056626;28;20293;-74
2022/03/26 00:59:12;;;;;;;32.53;21.45;;;;;;;3.53;85.25;103104.00;1052111;28;20312;-73
2022/03/26 00:59:44;;;;;;;38.33;21.60;;;;;;;3.49;85.59;103097.28;1051905;28;20290;-74
2022/03/26 01:00:16;;;;;;;47.35;22.05;;;;;;;3.48;85.37;103105.31;1047972;28;20290;-74
2022/03/26 01:00:47;;;;;;;35.70;21.90;;;;;;;3.37;85.48;103099.06;1045853;28;20765;-74
2022/03/26 01:01:19;;;;;;;37.03;24.23;;;;;;;3.44;85.98;103106.50;1055277;28;20794;-74
2022/03/26 01:01:51;;;;;;;32.60;21.33;;;;;;;3.39;85.83;103097.16;1056394;28;20289;-73
2022/03/26 01:02:22;;;;;;;36.22;21.45;;;;;;;3.41;86.08;103104.94;1056457;28;20335;-73
2022/03/26 01:02:54;;;;;;;34.70;22.58;;;;;;;3.52;85.87;103096.22;1056416;28;20289;-73
2022/03/26 01:03:26;;;;;;;37.50;24.05;;;;;;;3.36;85.85;103102.66;1056309;28;20774;-73
2022/03/26 01:03:58;;;;;;;34.85;22.63;;;;;;;3.36;86.25;103107.06;1056618;28;20328;-73
2022/03/26 01:04:30;;;;;;;30.67;21.88;;;;;;;3.31;86.28;103099.53;1056453;28;20782;-73
2022/03/26 01:05:02;;;;;;;37.03;22.67;;;;;;;3.30;86.51;103097.84;1056069;28;20787;-73
2022/03/26 01:05:34;;;;;;;36.65;22.67;;;;;;;3.43;86.38;103097.75;1056157;28;20293;-74
2022/03/26 01:06:05;;;;;;;33.58;23.67;;;;;;;3.44;86.33;103099.44;1055937;28;20312;-74
2022/03/26 01:06:37;;;;;;;32.53;22.00;;;;;;;3.51;86.08;103099.81;1056120;28;20305;-74
2022/03/26 01:07:08;;;;;;;34.67;22.80;;;;;;;3.31;86.27;103099.53;1056247;28;20293;-74
2022/03/26 01:07:40;;;;;;;30.42;21.80;;;;;;;3.33;86.20;103097.63;1055971;28;20289;-74
2022/03/26 01:08:11;;;;;;;30.35;21.75;;;;;;;3.35;86.16;103103.59;1055986;28;20297;-73
2022/03/26 01:08:43;;;;;;;41.00;23.00;;;;;;;3.37;86.08;103095.59;1056300;28;20359;-73
2022/03/26 01:09:15;;;;;;;38.08;22.30;;;;;;;3.49;86.17;103105.19;1056067;28;20348;-74
2022/03/26 01:09:46;;;;;;;34.92;22.10;;;;;;;3.39;85.68;103098.94;1055383;28;20787;-74
2022/03/26 01:10:18;;;;;;;28.83;21.90;;;;;;;3.41;85.71;103103.16;1056525;28;20648;-74
2022/03/26 01:10:49;;;;;;;33.00;21.70;;;;;;;3.33;86.27;103097.63;1056258;28;20301;-73
2022/03/26 01:11:22;;;;;;;37.20;21.00;;;;;;;3.26;85.67;103096.34;1056060;28;20818;-74
2022/03/26 01:11:53;;;;;;;29.23;21.35;;;;;;;3.38;85.81;103100.75;1056257;28;20300;-74
2022/03/26 01:12:25;;;;;;;39.33;23.00;;;;;;;3.41;86.04;103103.16;1055956;28;20313;-74
2022/03/26 01:12:57;;;;;;;35.00;21.70;;;;;;;3.43;85.57;103092.50;1055616;28;20366;-75
2022/03/26 01:13:30;;;;;;;40.33;22.38;;;;;;;3.42;85.10;103091.66;1056608;28;20787;-73
2022/03/26 01:14:02;;;;;;;32.25;21.27;;;;;;;3.46;84.90;103096.69;1054049;28;20285;-73
2022/03/26 01:14:34;;;;;;;34.20;22.23;;;;;;;3.49;84.88;103091.19;1056069;28;20301;-73
2022/03/26 01:15:06;;;;;;;33.85;22.33;;;;;;;3.30;85.00;103097.84;1052120;28;20286;-73
2022/03/26 01:15:38;;;;;;;37.03;22.33;;;;;;;3.30;85.15;103097.84;1049561;28;20365;-74
2022/03/26 01:16:10;;;;;;;28.48;20.52;;;;;;;3.34;85.23;103095.81;1052633;28;20707;-73
2022/03/26 01:16:42;;;;;;;30.40;21.20;;;;;;;3.39;84.79;103097.16;1056137;28;20304;-73
2022/03/26 01:17:13;;;;;;;34.15;21.45;;;;;;;3.34;85.00;103094.03;1056639;28;20720;-74
2022/03/26 01:17:45;;;;;;;31.35;22.20;;;;;;;3.32;84.99;103097.72;1055882;28;20358;-73
2022/03/26 01:18:17;;;;;;;38.45;20.77;;;;;;;3.36;85.19;103094.75;1056123;28;20281;-73
2022/03/26 01:18:49;;;;;;;39.63;23.48;;;;;;;3.41;84.75;103100.50;1049637;28;20310;-74
2022/03/26 01:19:20;;;;;;;40.38;22.10;;;;;;;3.36;85.00;103097.38;1051854;28;20423;-74
2022/03/26 01:19:52;;;;;;;35.47;23.83;;;;;;;3.38;84.90;103089.38;1051807;28;20762;-73
2022/03/26 01:20:24;;;;;;;29.17;22.25;;;;;;;3.34;85.50;103094.03;1049353;28;20352;-74
2022/03/26 01:20:56;;;;;;;37.50;18.73;;;;;;;3.30;85.38;103091.72;1052470;28;20293;-74
2022/03/26 01:21:27;;;;;;;29.23;20.40;;;;;;;3.36;85.49;103086.84;1052931;28;20339;-74
2022/03/26 01:21:59;;;;;;;32.83;19.88;;;;;;;3.37;84.95;103088.53;1053367;28;20286;-73
2022/03/26 01:22:30;;;;;;;35.25;21.02;;;;;;;3.27;84.84;103087.50;1056833;28;20293;-74
2022/03/26 01:23:02;;;;;;;26.13;19.90;;;;;;;3.22;84.95;103089.63;1057229;28;20300;-74
2022/03/26 01:23:34;;;;;;;30.10;21.15;;;;;;;3.26;85.41;103090.25;1057229;28;20290;-75
2022/03/26 01:24:06;;;;;;;31.48;21.10;;;;;;;3.08;85.37;103081.94;1056845;28;20864;-73
2022/03/26 01:24:38;;;;;;;32.28;22.70;;;;;;;3.02;85.47;103095.53;1057106;28;20293;-73
2022/03/26 01:25:10;;;;;;;35.50;22.92;;;;;;;3.23;85.49;103086.06;1057239;28;20698;-72
2022/03/26 01:25:41;;;;;;;33.78;21.73;;;;;;;3.25;85.63;103089.41;1056914;28;20710;-72
2022/03/26 01:26:14;;;;;;;36.38;23.00;;;;;;;3.33;85.07;103081.81;1057567;28;20620;-74
2022/03/26 01:26:45;;;;;;;35.80;23.20;;;;;;;3.47;84.91;103093.94;1054936;28;20286;-73
2022/03/26 01:27:17;;;;;;;36.22;23.52;;;;;;;3.48;84.97;103089.50;1057107;28;20666;-73
2022/03/26 01:27:49;;;;;;;38.97;24.92;;;;;;;3.50;84.13;103090.22;1057142;28;20304;-73
2022/03/26 01:28:20;;;;;;;45.83;24.88;;;;;;;3.61;84.43;103087.66;1057532;27;20289;-74
2022/03/26 01:28:52;;;;;;;35.75;23.98;;;;;;;3.63;84.40;103083.09;1057127;28;20297;-74
2022/03/26 01:29:25;;;;;;;31.45;22.15;;;;;;;3.68;84.48;103096.75;1056585;28;20819;-74
2022/03/26 01:29:57;;;;;;;37.72;24.27;;;;;;;3.68;84.51;103086.22;1057423;28;20289;-75
2022/03/26 01:30:29;;;;;;;34.00;24.33;;;;;;;3.63;84.33;103088.38;1057203;28;20360;-75
2022/03/26 01:31:00;;;;;;;35.20;24.23;;;;;;;3.60;84.64;103094.72;1057216;28;20293;-74
2022/03/26 01:31:32;;;;;;;37.78;25.83;;;;;;;3.58;84.14;103086.09;1057407;28;20794;-74
2022/03/26 01:32:05;;;;;;;32.00;24.02;;;;;;;3.58;84.76;103090.53;1057187;28;20674;-75
2022/03/26 01:32:37;;;;;;;32.63;22.75;;;;;;;3.55;84.28;103096.00;1056753;28;20798;-75
2022/03/26 01:33:08;;;;;;;41.53;23.50;;;;;;;3.55;84.61;103088.09;1057052;28;20289;-74
2022/03/26 01:33:40;;;;;;;41.20;22.25;;;;;;;3.48;84.50;103089.50;1056908;28;20301;-75
2022/03/26 01:34:12;;;;;;;37.20;22.98;;;;;;;3.36;84.25;103088.63;1056800;28;20305;-75
2022/03/26 01:34:43;;;;;;;33.20;22.10;;;;;;;3.19;84.36;103089.88;1057077;28;20297;-74
2022/03/26 01:35:15;;;;;;;33.75;21.92;;;;;;;3.09;84.67;103086.25;1056712;28;20297;-75
2022/03/26 01:35:46;;;;;;;37.85;24.80;;;;;;;2.98;85.22;103096.69;1056623;28;20313;-74
2022/03/26 01:36:18;;;;;;;40.25;23.33;;;;;;;2.94;85.29;103095.25;1057509;28;20284;-75
2022/03/26 01:36:50;;;;;;;33.42;22.75;;;;;;;2.72;85.87;103096.78;1057210;28;20293;-75
2022/03/26 01:37:21;;;;;;;31.38;21.10;;;;;;;2.69;86.10;103090.88;1056999;28;20308;-75
2022/03/26 01:37:53;;;;;;;35.85;22.55;;;;;;;2.76;85.57;103086.91;1057554;28;20293;-75
2022/03/26 01:38:24;;;;;;;38.60;22.77;;;;;;;2.79;86.30;103094.56;1056816;28;20648;-75
2022/03/26 01:38:56;;;;;;;34.05;23.45;;;;;;;2.85;86.37;103090.66;1056274;28;20301;-75
2022/03/26 01:39:28;;;;;;;27.35;22.23;;;;;;;2.84;85.96;103099.50;1057110;28;20301;-75
2022/03/26 01:40:01;;;;;;;32.83;22.45;;;;;;;2.83;86.59;103100.44;1056966;28;20293;-75
2022/03/26 01:40:36;;;;;;;30.27;21.10;;;;;;;2.72;86.05;103096.78;1057124;28;20644;-75
2022/03/26 01:41:08;;;;;;;27.83;20.85;;;;;;;2.55;86.20;103094.50;1057108;27;20305;-75
2022/03/26 01:41:40;;;;;;;36.55;22.67;;;;;;;2.55;86.44;103093.69;1057210;28;20293;-75
2022/03/26 01:42:11;;;;;;;31.13;22.02;;;;;;;2.67;86.64;103093.63;1057159;28;20790;-74
2022/03/26 01:42:43;;;;;;;37.15;23.10;;;;;;;2.73;86.66;103095.81;1056785;28;20308;-74
2022/03/26 01:43:15;;;;;;;40.90;24.80;;;;;;;2.70;86.60;103093.41;1057087;28;20292;-74
2022/03/26 01:43:46;;;;;;;32.10;21.83;;;;;;;2.73;86.56;103095.81;1056700;28;20297;-74
2022/03/26 01:44:18;;;;;;;32.28;22.08;;;;;;;2.72;86.40;103086.25;1052560;28;20309;-74
2022/03/26 01:44:49;;;;;;;34.50;23.23;;;;;;;2.60;86.17;103092.41;1052796;28;20294;-74
2022/03/26 01:45:21;;;;;;;35.65;22.30;;;;;;;2.55;86.29;103091.88;1056395;28;20334;-74
2022/03/26 01:45:53;;;;;;;36.92;22.25;;;;;;;2.51;86.46;103082.53;1056702;28;20301;-74
2022/03/26 01:46:24;;;;;;;33.95;22.00;;;;;;;2.66;87.36;103080.59;1057358;28;20329;-74
2022/03/26 01:46:56;;;;;;;32.72;24.13;;;;;;;2.68;87.35;103087.41;1057091;28;20655;-74
2022/03/26 01:47:28;;;;;;;29.15;22.55;;;;;;;2.61;87.23;103088.81;1056129;28;20312;-75
2022/03/26 01:48:00;;;;;;;33.00;21.88;;;;;;;2.50;86.98;103085.28;1052953;28;20785;-74
2022/03/26 01:48:32;;;;;;;35.85;23.90;;;;;;;2.47;87.10;103091.59;1052510;28;20294;-74
2022/03/26 01:49:03;;;;;;;38.83;26.25;;;;;;;2.52;86.95;103091.25;1049013;28;20657;-74
2022/03/26 01:49:35;;;;;;;35.85;23.63;;;;;;;2.58;87.69;103081.13;1049182;28;20638;-74
2022/03/26 01:50:07;;;;;;;37.83;24.88;;;;;;;2.52;87.78;103083.38;1048007;28;20318;-74
2022/03/26 01:50:40;;;;;;;32.22;23.15;;;;;;;2.54;87.58;103092.00;1048844;28;20692;-74
2022/03/26 01:51:15;;;;;;;34.20;24.65;;;;;;;2.62;87.70;103087.84;1053660;28;20329;-75
2022/03/26 01:51:47;;;;;;;34.22;25.27;;;;;;;2.67;87.40;103082.25;1056578;28;20293;-75
2022/03/26 01:52:19;;;;;;;33.85;24.83;;;;;;;2.81;87.47;103086.56;1056585;28;20304;-75
2022/03/26 01:52:50;;;;;;;39.35;24.75;;;;;;;2.81;86.80;103094.44;1056592;28;20309;-75
2022/03/26 01:53:22;;;;;;;42.60;25.48;;;;;;;2.73;87.27;103093.19;1056586;28;20301;-75
2022/03/26 01:53:54;;;;;;;38.60;22.70;;;;;;;2.66;87.51;103084.06;1056587;28;20304;-75
2022/03/26 01:54:27;;;;;;;32.03;22.73;;;;;;;2.64;86.95;103087.75;1056906;28;20304;-75
2022/03/26 01:54:59;;;;;;;34.50;21.70;;;;;;;2.60;87.08;103084.50;1056759;28;20636;-75
2022/03/26 01:55:30;;;;;;;42.28;23.48;;;;;;;2.62;86.88;103085.22;1056355;28;20335;-75
2022/03/26 01:56:02;;;;;;;36.03;25.25;;;;;;;2.58;87.11;103078.50;1056657;28;20305;-75
2022/03/26 01:56:34;;;;;;;44.17;24.80;;;;;;;2.56;86.97;103083.03;1056525;28;20289;-75
2022/03/26 01:57:07;;;;;;;32.90;23.48;;;;;;;2.45;87.57;103083.78;1056575;28;20293;-75
2022/03/26 01:57:38;;;;;;;37.10;23.15;;;;;;;2.37;87.56;103075.59;1056683;28;20301;-75
2022/03/26 01:58:10;;;;;;;42.97;23.83;;;;;;;2.32;87.78;103082.97;1056546;28;20651;-75
2022/03/26 01:58:43;;;;;;;33.28;25.25;;;;;;;2.23;88.07;103088.88;1056955;28;20325;-75
2022/03/26 01:59:14;;;;;;;42.05;25.05;;;;;;;2.21;88.58;103080.25;1056889;28;20293;-75
2022/03/26 01:59:46;;;;;;;38.10;27.23;;;;;;;2.27;88.24;103079.00;1056365;28;20309;-75
2022/03/26 02:00:17;;;;;;;34.47;26.13;;;;;;;2.35;88.85;103081.91;1052683;28;20348;-75
2022/03/26 02:00:49;;;;;;;47.83;25.25;;;;;;;2.44;89.10;103076.00;1052251;28;20297;-75
2022/03/26 02:01:21;;;;;;;42.92;26.08;;;;;;;2.50;89.14;103078.22;1052736;28;20719;-75
2022/03/26 02:01:53;;;;;;;37.30;26.23;;;;;;;2.67;88.50;103075.22;1056826;28;20296;-75
2022/03/26 02:02:28;;;;;;;38.75;24.38;;;;;;;2.65;88.56;103077.13;1057285;28;20786;-76
2022/03/26 02:03:00;;;;;;;35.00;24.27;;;;;;;2.63;88.22;103083.44;1056910;28;20297;-76
2022/03/26 02:03:31;;;;;;;38.63;24.23;;;;;;;2.65;88.10;103082.38;1057110;28;20301;-75
2022/03/26 02:04:05;;;;;;;31.75;23.67;;;;;;;2.64;88.22;103082.50;1054404;28;20690;-75
2022/03/26 02:04:37;;;;;;;34.72;23.60;;;;;;;2.71;87.58;103078.47;1056612;28;20292;-76
2022/03/26 02:05:13;;;;;;;35.03;21.95;;;;;;;2.65;87.68;103081.53;1056547;28;20865;-75
2022/03/26 02:05:44;;;;;;;33.85;23.25;;;;;;;2.62;87.55;103081.75;1052318;28;20521;-75
2022/03/26 02:06:16;;;;;;;32.70;23.65;;;;;;;2.73;87.46;103076.56;1053699;28;20297;-75
2022/03/26 02:06:48;;;;;;;43.88;24.30;;;;;;;2.66;87.49;103078.78;1055785;28;20313;-75
2022/03/26 02:07:19;;;;;;;27.88;22.08;;;;;;;2.56;87.20;103077.78;1052429;28;20778;-75
2022/03/26 02:07:51;;;;;;;35.53;22.30;;;;;;;2.47;87.47;103075.81;1056747;28;20298;-75
2022/03/26 02:08:22;;;;;;;28.52;23.02;;;;;;;2.55;87.13;103076.09;1056466;28;20297;-75
2022/03/26 02:08:54;;;;;;;40.38;23.98;;;;;;;2.52;87.29;103073.69;1056704;28;20822;-75
2022/03/26 02:09:26;;;;;;;37.85;24.52;;;;;;;2.40;87.40;103071.91;1057124;28;20301;-75
2022/03/26 02:09:57;;;;;;;35.00;26.30;;;;;;;2.54;87.89;103070.94;1056838;28;20282;-75
2022/03/26 02:10:29;;;;;;;35.95;25.60;;;;;;;2.46;88.17;103074.09;1056645;28;20783;-75
2022/03/26 02:11:02;;;;;;;35.13;23.70;;;;;;;2.48;88.08;103072.22;1057056;28;20734;-75
2022/03/26 02:11:36;;;;;;;30.75;24.15;;;;;;;2.44;87.56;103074.22;1056871;28;20312;-75
2022/03/26 02:12:27;;;;;;;36.00;24.67;;;;;;;2.42;87.61;103075.25;1056752;28;20289;-75
2022/03/26 02:12:59;;;;;;;36.33;23.25;;;;;;;2.45;88.10;103082.94;1056548;28;20690;-76
2022/03/26 02:13:53;;;;;;;36.65;23.83;;;;;;;2.55;87.95;103076.09;1056641;28;20293;-76
2022/03/26 02:14:25;;;;;;;31.65;22.65;;;;;;;2.57;88.10;103074.19;1056593;28;20687;-75
2022/03/26 02:14:57;;;;;;;36.38;24.63;;;;;;;2.57;87.61;103076.84;1056710;28;20297;-75
2022/03/26 02:15:29;;;;;;;36.65;26.13;;;;;;;2.53;87.96;103075.38;1056824;28;20299;-76
2022/03/26 02:16:00;;;;;;;32.63;23.90;;;;;;;2.48;87.85;103080.13;1056753;28;20289;-76
2022/03/26 02:16:32;;;;;;;38.25;25.70;;;;;;;2.36;87.95;103073.91;1056638;28;20293;-75
2022/03/26 02:17:04;;;;;;;36.25;25.00;;;;;;;2.47;88.06;103068.75;1056284;28;20402;-76
2022/03/26 02:17:36;;;;;;;35.28;23.92;;;;;;;2.52;87.73;103073.69;1056686;28;20285;-76
2022/03/26 02:18:09;;;;;;;52.00;26.00;;;;;;;2.57;87.63;103076.84;1056405;28;20392;-75
2022/03/26 02:18:41;;;;;;;32.47;24.48;;;;;;;2.47;87.75;103075.81;1055838;28;20301;-75
2022/03/26 02:19:12;;;;;;;35.58;26.15;;;;;;;2.55;87.92;103072.63;1056751;28;20289;-76
2022/03/26 02:19:57;;;;;;;40.92;26.98;;;;;;;2.57;87.50;103076.84;1056222;28;20301;-75
2022/03/26 02:20:30;;;;;;;41.83;25.00;;;;;;;2.63;87.71;103079.00;1056718;28;20304;-75
2022/03/26 02:21:02;;;;;;;35.65;24.35;;;;;;;2.59;87.60;103074.09;1056612;28;20295;-75
2022/03/26 02:21:37;;;;;;;37.80;27.00;;;;;;;2.66;87.18;103080.59;1056558;28;20301;-76
2022/03/26 02:22:09;;;;;;;38.13;24.13;;;;;;;2.59;87.05;103074.94;1056222;28;20304;-76
2022/03/26 02:22:41;;;;;;;36.17;23.27;;;;;;;2.59;87.47;103080.19;1056476;28;20297;-76
2022/03/26 02:23:12;;;;;;;39.58;25.27;;;;;;;2.47;86.90;103074.03;1049712;28;20287;-76
2022/03/26 02:23:45;;;;;;;44.03;24.92;;;;;;;2.51;87.19;103077.28;1048620;28;20869;-76
2022/03/26 02:24:17;;;;;;;33.20;22.98;;;;;;;2.54;87.30;103076.22;1047948;28;20290;-75
2022/03/26 02:24:49;;;;;;;32.45;25.15;;;;;;;2.44;87.26;103073.38;1048948;28;20287;-75
2022/03/26 02:25:23;;;;;;;32.58;21.90;;;;;;;2.38;86.87;103076.44;1049198;28;20381;-75
2022/03/26 02:25:55;;;;;;;34.03;21.70;;;;;;;2.42;86.94;103080.53;1053159;28;20294;-74
2022/03/26 02:26:27;;;;;;;36.35;22.63;;;;;;;2.35;87.11;103072.22;1056688;28;20635;-75
2022/03/26 02:26:58;;;;;;;38.60;22.20;;;;;;;2.23;87.25;103069.63;1056575;28;20301;-75
2022/03/26 02:27:30;;;;;;;39.25;24.05;;;;;;;2.39;87.12;103072.84;1056049;28;20794;-74